Time;durP1;ratioP1;P1;durP2;ratioP2;P2;SDS_P1;SDS_P2;PMS_P1;PMS_P2;Temp;Humidity;BMP_temperature;BMP_pressure;BME280_temperature;BME280_humidity;BME280_pressure;Samples;Min_cycle;Max_cycle;Signal;HPM_P1;HPM_P2
2022/10/24 00:00:33;;;;;;;7.13;3.97;;;;;;;12.13;100.00;100457.94;5018633;28;20663;-70
2022/10/24 00:02:59;;;;;;;6.57;4.10;;;;;;;12.15;100.00;100469.19;5024479;28;20435;-69
2022/10/24 00:05:26;;;;;;;6.07;4.07;;;;;;;12.20;100.00;100479.47;5027038;28;20194;-70
2022/10/24 00:07:52;;;;;;;6.17;3.83;;;;;;;12.19;100.00;100478.63;5026499;28;20216;-69
2022/10/24 00:10:21;;;;;;;7.40;4.30;;;;;;;12.21;100.00;100478.59;5021852;28;20223;-68
2022/10/24 00:12:47;;;;;;;6.90;4.37;;;;;;;12.21;100.00;100466.38;5019970;28;20211;-70
2022/10/24 00:15:14;;;;;;;7.60;4.20;;;;;;;12.23;100.00;100468.94;5002798;28;20695;-69
2022/10/24 00:17:41;;;;;;;7.20;4.40;;;;;;;12.24;100.00;100447.09;5024489;28;20218;-70
2022/10/24 00:20:09;;;;;;;8.10;4.17;;;;;;;12.24;100.00;100434.91;5022332;28;20232;-70
2022/10/24 00:22:35;;;;;;;7.03;4.13;;;;;;;12.22;100.00;100414.94;5023650;28;20529;-70
2022/10/24 00:25:02;;;;;;;8.00;4.50;;;;;;;12.20;100.00;100433.28;5023393;28;20200;-70
2022/10/24 00:27:30;;;;;;;9.03;4.07;;;;;;;12.20;100.00;100445.50;5022388;28;20681;-70
2022/10/24 00:29:57;;;;;;;6.97;4.23;;;;;;;12.19;100.00;100449.00;5006951;28;20209;-69
2022/10/24 00:32:23;;;;;;;6.60;4.43;;;;;;;12.17;100.00;100453.44;5023069;28;20200;-70
2022/10/24 00:34:49;;;;;;;5.37;3.97;;;;;;;12.16;100.00;100449.16;5027980;28;20193;-70
2022/10/24 00:37:16;;;;;;;8.67;4.50;;;;;;;12.13;100.00;100448.31;5029284;28;20220;-70
2022/10/24 00:39:43;;;;;;;6.57;4.13;;;;;;;12.09;100.00;100446.72;5027330;28;20202;-70
2022/10/24 00:42:10;;;;;;;6.93;4.13;;;;;;;12.06;100.00;100446.00;5029312;28;20657;-70
2022/10/24 00:44:39;;;;;;;9.17;5.50;;;;;;;12.01;100.00;100447.91;5028160;28;20198;-68
2022/10/24 00:47:10;;;;;;;6.67;4.53;;;;;;;11.98;100.00;100443.66;5024550;28;20197;-70
2022/10/24 00:49:46;;;;;;;7.53;5.07;;;;;;;11.95;100.00;100438.53;5027583;28;20200;-70
2022/10/24 00:52:16;;;;;;;9.13;5.00;;;;;;;11.93;100.00;100451.63;5026569;28;20218;-69
2022/10/24 00:54:43;;;;;;;6.43;4.87;;;;;;;11.93;100.00;100458.63;5028554;28;20192;-70
2022/10/24 00:57:16;;;;;;;8.20;5.07;;;;;;;11.91;100.00;100461.28;5029290;28;20228;-70
2022/10/24 00:59:49;;;;;;;7.83;5.30;;;;;;;11.90;100.00;100456.97;5028023;28;20210;-69
2022/10/24 01:02:16;;;;;;;8.33;4.80;;;;;;;11.88;100.00;100445.69;5025423;28;20211;-69
2022/10/24 01:04:43;;;;;;;9.47;5.37;;;;;;;11.85;100.00;100435.34;5026542;28;20215;-69
2022/10/24 01:07:24;;;;;;;7.43;4.80;;;;;;;11.82;100.00;100430.25;5023611;28;20713;-69
2022/10/24 01:10:17;;;;;;;7.13;5.33;;;;;;;11.82;100.00;100427.63;5021550;28;20188;-70
2022/10/24 01:12:57;;;;;;;9.87;5.67;;;;;;;11.77;100.00;100415.59;5026192;28;20703;-70
2022/10/24 01:15:34;;;;;;;8.97;5.23;;;;;;;11.70;100.00;100413.22;5026332;28;20214;-70
2022/10/24 01:18:06;;;;;;;12.33;5.53;;;;;;;11.67;100.00;100415.09;5023324;28;20286;-69
2022/10/24 01:20:49;;;;;;;8.97;5.50;;;;;;;11.61;100.00;100410.06;5026048;28;20224;-70
2022/10/24 01:23:49;;;;;;;9.57;5.40;;;;;;;11.55;100.00;100409.34;5026298;28;20197;-70
2022/10/24 01:26:46;;;;;;;9.50;5.80;;;;;;;11.50;100.00;100415.63;5024504;28;20279;-70
2022/10/24 01:29:18;;;;;;;8.30;5.50;;;;;;;11.46;100.00;100408.81;5020788;28;20199;-69
2022/10/24 01:31:52;;;;;;;8.83;5.33;;;;;;;11.42;100.00;100404.63;5020715;28;20298;-69
2022/10/24 01:34:25;;;;;;;8.27;5.43;;;;;;;11.39;100.00;100404.72;5021323;28;20842;-70
2022/10/24 01:36:58;;;;;;;10.20;5.87;;;;;;;11.36;100.00;100387.38;5021516;28;20216;-70
2022/10/24 01:39:29;;;;;;;9.03;5.33;;;;;;;11.31;100.00;100379.72;5025972;28;20235;-69
2022/10/24 01:41:58;;;;;;;8.33;5.50;;;;;;;11.32;100.00;100383.19;5023272;28;20234;-70
2022/10/24 01:44:29;;;;;;;9.03;5.50;;;;;;;11.29;100.00;100370.22;5021407;28;20890;-70
2022/10/24 01:47:02;;;;;;;6.73;4.73;;;;;;;11.31;100.00;100371.88;5028726;28;20192;-70
2022/10/24 01:49:33;;;;;;;6.93;4.87;;;;;;;11.31;100.00;100369.28;5023490;28;20200;-69
2022/10/24 01:52:04;;;;;;;10.03;5.67;;;;;;;11.30;100.00;100366.72;5022715;28;20306;-70
2022/10/24 01:54:32;;;;;;;9.50;5.20;;;;;;;11.29;100.00;100360.66;5023864;28;20455;-70
2022/10/24 01:56:58;;;;;;;7.10;4.73;;;;;;;11.30;100.00;100358.88;5023099;28;20246;-70
2022/10/24 01:59:41;;;;;;;10.10;6.17;;;;;;;11.29;100.00;100359.78;5022750;28;20280;-69
2022/10/24 02:02:15;;;;;;;9.10;5.70;;;;;;;11.29;100.00;100355.44;5024701;28;20704;-70
2022/10/24 02:04:51;;;;;;;7.93;4.93;;;;;;;11.28;100.00;100343.28;5019620;28;20244;-69
2022/10/24 02:07:18;;;;;;;7.67;5.07;;;;;;;11.26;100.00;100344.25;5023644;28;20218;-69
2022/10/24 02:09:47;;;;;;;7.80;5.07;;;;;;;11.26;100.00;100336.41;5005724;28;20786;-70
2022/10/24 02:12:16;;;;;;;6.13;4.90;;;;;;;11.24;100.00;100335.59;5027669;28;20204;-69
2022/10/24 02:14:47;;;;;;;7.17;5.10;;;;;;;11.22;100.00;100337.41;5024389;28;20226;-70
2022/10/24 02:17:15;;;;;;;9.43;4.97;;;;;;;11.22;100.00;100338.28;5028195;28;20236;-70
2022/10/24 02:19:43;;;;;;;8.70;4.83;;;;;;;11.24;100.00;100333.84;5023784;28;20608;-68
2022/10/24 02:22:17;;;;;;;7.73;5.20;;;;;;;11.28;100.00;100352.88;5026406;28;20220;-70
2022/10/24 02:24:49;;;;;;;9.07;5.33;;;;;;;11.26;100.00;100350.31;5021437;28;20198;-70
2022/10/24 02:27:21;;;;;;;10.53;5.60;;;;;;;11.29;100.00;100360.66;5021256;28;20196;-70
2022/10/24 02:29:53;;;;;;;10.73;5.37;;;;;;;11.28;100.00;100381.59;5023585;28;20198;-70
2022/10/24 02:32:27;;;;;;;9.83;5.90;;;;;;;11.27;100.00;100372.03;5025029;28;20200;-70
2022/10/24 02:34:55;;;;;;;12.67;6.30;;;;;;;11.25;100.00;100366.84;5025278;28;20505;-70
2022/10/24 02:37:23;;;;;;;10.50;5.43;;;;;;;11.21;100.00;100352.22;5020596;28;20204;-70
2022/10/24 02:39:52;;;;;;;8.00;5.53;;;;;;;11.20;100.00;100354.88;5024028;28;20195;-70
2022/10/24 02:42:20;;;;;;;8.63;5.80;;;;;;;11.17;100.00;100359.28;5041310;22;20227;-70
2022/10/24 02:44:47;;;;;;;8.93;5.73;;;;;;;11.15;100.00;100363.72;5026732;28;20257;-71
2022/10/24 02:47:15;;;;;;;7.00;5.57;;;;;;;11.13;100.00;100368.13;5042859;28;20212;-71
2022/10/24 02:49:44;;;;;;;8.70;6.20;;;;;;;11.10;100.00;100363.00;5038899;28;20863;-71
2022/10/24 02:52:10;;;;;;;7.83;5.97;;;;;;;11.06;100.00;100364.00;5043709;28;20206;-70
2022/10/24 02:54:37;;;;;;;10.77;6.97;;;;;;;11.03;100.00;100365.84;5040304;28;20198;-71
2022/10/24 02:57:04;;;;;;;11.00;6.67;;;;;;;10.98;100.00;100353.81;5041685;28;20513;-71
2022/10/24 02:59:30;;;;;;;8.83;6.20;;;;;;;10.92;100.00;100345.31;5038541;28;20679;-71
2022/10/24 03:01:57;;;;;;;9.37;5.90;;;;;;;10.88;100.00;100341.13;5041212;28;20202;-71
2022/10/24 03:04:23;;;;;;;8.53;5.90;;;;;;;10.80;100.00;100331.78;5040811;28;20210;-71
2022/10/24 03:06:52;;;;;;;8.17;5.87;;;;;;;10.75;100.00;100328.47;5041753;28;20260;-71
2022/10/24 03:09:18;;;;;;;12.40;5.57;;;;;;;10.68;100.00;100326.97;5040485;28;20280;-71
2022/10/24 03:11:44;;;;;;;8.00;5.57;;;;;;;10.60;100.00;100332.38;5046997;28;20207;-71
2022/10/24 03:14:11;;;;;;;8.30;5.37;;;;;;;10.53;100.00;100336.09;5042050;28;20201;-71
2022/10/24 03:16:37;;;;;;;9.40;5.70;;;;;;;10.49;100.00;100344.06;5046107;28;20573;-71
2022/10/24 03:19:04;;;;;;;8.17;5.90;;;;;;;10.42;100.00;100340.78;5040930;28;20226;-71
2022/10/24 03:21:30;;;;;;;9.43;5.60;;;;;;;10.36;100.00;100339.22;5045610;28;20208;-71
2022/10/24 03:23:58;;;;;;;10.83;5.93;;;;;;;10.33;100.00;100343.66;5042125;28;20210;-72
2022/10/24 03:26:24;;;;;;;9.43;6.33;;;;;;;10.27;100.00;100339.44;5042895;28;20345;-71
2022/10/24 03:28:50;;;;;;;9.20;6.10;;;;;;;10.26;100.00;100331.69;5045576;28;20222;-71
2022/10/24 03:31:17;;;;;;;8.87;6.07;;;;;;;10.24;100.00;100329.13;5040454;28;20693;-71
2022/10/24 03:33:44;;;;;;;8.67;5.10;;;;;;;10.19;100.00;100326.66;5043356;28;20289;-71
2022/10/24 03:36:10;;;;;;;8.87;5.77;;;;;;;10.18;100.00;100337.97;5038200;28;20222;-71
2022/10/24 03:38:37;;;;;;;9.50;5.97;;;;;;;10.15;100.00;100343.28;5042976;28;20254;-71
2022/10/24 03:41:05;;;;;;;7.97;5.40;;;;;;;10.11;100.00;100338.19;5044413;28;20492;-71
2022/10/24 03:43:31;;;;;;;7.30;5.87;;;;;;;10.05;100.00;100332.25;5043795;28;20682;-71
2022/10/24 03:45:58;;;;;;;8.53;6.00;;;;;;;10.01;100.00;100333.25;5045091;28;20636;-71
2022/10/24 03:48:24;;;;;;;8.63;5.93;;;;;;;9.98;100.00;100342.91;5044986;28;20557;-71
2022/10/24 03:50:51;;;;;;;12.00;6.40;;;;;;;9.97;100.00;100342.06;5039034;28;20256;-71
2022/10/24 03:53:18;;;;;;;8.87;6.53;;;;;;;9.95;100.00;100350.78;5044211;28;20198;-71
2022/10/24 03:55:44;;;;;;;9.43;6.60;;;;;;;9.89;100.00;100344.00;5045344;28;20731;-71
2022/10/24 03:58:12;;;;;;;9.17;6.13;;;;;;;9.86;100.00;100351.91;5050841;28;20497;-71
2022/10/24 04:00:39;;;;;;;9.93;5.47;;;;;;;9.84;100.00;100351.94;5047478;28;20208;-71
2022/10/24 04:03:06;;;;;;;10.07;6.30;;;;;;;9.85;100.00;100355.41;5038991;28;20365;-71
2022/10/24 04:05:32;;;;;;;11.80;7.20;;;;;;;9.86;100.00;100351.91;5051200;28;20217;-71
2022/10/24 04:07:59;;;;;;;10.07;7.30;;;;;;;9.88;100.00;100346.66;5041374;28;20197;-71
2022/10/24 04:10:26;;;;;;;13.63;7.83;;;;;;;9.88;100.00;100350.09;5041243;28;20221;-72
2022/10/24 04:12:52;;;;;;;10.07;7.33;;;;;;;9.92;100.00;100356.06;5042326;28;20568;-71
2022/10/24 04:15:20;;;;;;;14.40;7.80;;;;;;;9.86;100.00;100352.75;5047136;28;20229;-71
2022/10/24 04:17:47;;;;;;;11.47;7.20;;;;;;;9.84;100.00;100357.16;5043580;28;20717;-71
2022/10/24 04:20:18;;;;;;;13.03;7.73;;;;;;;9.82;100.00;100356.34;5038743;28;20245;-71
2022/10/24 04:22:44;;;;;;;15.40;7.67;;;;;;;9.82;100.00;100358.94;5045147;28;20713;-71
2022/10/24 04:25:11;;;;;;;16.70;8.40;;;;;;;9.82;100.00;100356.34;5044158;28;20213;-71
2022/10/24 04:27:39;;;;;;;12.33;7.40;;;;;;;9.81;100.00;100353.78;5044507;28;20687;-71
2022/10/24 04:30:07;;;;;;;13.23;7.47;;;;;;;9.80;100.00;100359.91;5046455;28;20198;-71
2022/10/24 04:32:34;;;;;;;12.43;8.43;;;;;;;9.83;100.00;100357.19;5044375;28;20293;-71
2022/10/24 04:35:02;;;;;;;11.93;7.67;;;;;;;9.82;100.00;100366.75;5042666;28;20226;-71
2022/10/24 04:37:29;;;;;;;14.47;8.10;;;;;;;9.82;100.00;100358.94;5039977;28;20685;-71
2022/10/24 04:39:55;;;;;;;12.27;7.40;;;;;;;9.86;100.00;100359.72;5045724;28;20201;-71
2022/10/24 04:42:23;;;;;;;12.40;7.50;;;;;;;9.89;100.00;100364.84;5041684;28;20208;-71
2022/10/24 04:44:49;;;;;;;15.33;7.67;;;;;;;9.95;100.00;100367.25;5041677;28;20224;-71
2022/10/24 04:47:16;;;;;;;13.97;7.33;;;;;;;9.94;100.00;100367.34;5042642;28;20206;-71
2022/10/24 04:49:44;;;;;;;10.23;7.27;;;;;;;9.91;100.00;100376.06;5042003;28;20277;-71
2022/10/24 04:52:10;;;;;;;13.17;7.30;;;;;;;9.93;100.00;100370.81;5043810;28;21975;-71
2022/10/24 04:54:37;;;;;;;13.77;7.60;;;;;;;9.99;100.00;100368.03;5043376;28;20678;-71
2022/10/24 04:57:03;;;;;;;10.00;7.30;;;;;;;10.01;100.00;100361.91;5044152;28;20479;-71
2022/10/24 04:59:30;;;;;;;12.40;6.80;;;;;;;10.01;100.00;100350.63;5043618;28;20205;-71
2022/10/24 05:01:56;;;;;;;10.67;7.20;;;;;;;10.04;100.00;100351.41;5044972;28;20247;-71
2022/10/24 05:04:23;;;;;;;13.57;7.60;;;;;;;10.01;100.00;100351.47;5042324;28;20281;-71
2022/10/24 05:06:50;;;;;;;13.80;7.43;;;;;;;10.00;100.00;100360.19;5045903;28;20237;-71
2022/10/24 05:09:17;;;;;;;11.50;6.70;;;;;;;10.02;100.00;100354.94;5043679;28;20204;-71
2022/10/24 05:11:43;;;;;;;8.60;6.83;;;;;;;10.00;100.00;100352.38;5036381;28;20213;-71
2022/10/24 05:14:10;;;;;;;9.73;6.60;;;;;;;9.96;100.00;100355.97;5039751;28;20206;-71
2022/10/24 05:16:36;;;;;;;14.40;7.50;;;;;;;9.93;100.00;100361.25;5042332;28;20222;-71
2022/10/24 05:19:02;;;;;;;11.30;7.20;;;;;;;9.92;100.00;100364.75;5044080;28;20246;-71
2022/10/24 05:21:29;;;;;;;14.33;6.80;;;;;;;9.93;100.00;100363.00;5044248;28;20205;-71
2022/10/24 05:23:56;;;;;;;11.47;6.63;;;;;;;9.95;100.00;100359.44;5037378;28;20208;-71
2022/10/24 05:26:23;;;;;;;12.00;6.63;;;;;;;9.98;100.00;100359.38;5037729;28;20225;-71
2022/10/24 05:28:49;;;;;;;11.93;6.77;;;;;;;10.00;100.00;100361.94;5028746;28;20202;-71
2022/10/24 05:31:16;;;;;;;13.53;7.37;;;;;;;10.00;100.00;100372.34;5035459;28;20250;-71
2022/10/24 05:33:42;;;;;;;10.50;6.77;;;;;;;10.09;100.00;100372.09;5047801;28;20202;-71
2022/10/24 05:36:08;;;;;;;9.87;6.33;;;;;;;10.21;100.00;100374.34;5035685;28;20324;-71
2022/10/24 05:38:35;;;;;;;9.40;6.13;;;;;;;10.40;100.00;100372.09;5034782;28;20217;-71
2022/10/24 05:41:03;;;;;;;10.87;6.10;;;;;;;10.44;100.00;100380.69;5037873;28;20392;-71
2022/10/24 05:43:29;;;;;;;10.93;6.00;;;;;;;10.47;100.00;100385.81;5040124;28;20207;-71
2022/10/24 05:45:56;;;;;;;10.00;6.63;;;;;;;10.55;100.00;100380.34;5036026;28;20226;-71
2022/10/24 05:48:22;;;;;;;13.93;6.47;;;;;;;10.60;100.00;100379.31;5040348;28;20190;-71
2022/10/24 05:50:49;;;;;;;11.23;6.97;;;;;;;10.59;100.00;100380.22;5036429;28;20206;-71
2022/10/24 05:53:15;;;;;;;11.07;6.53;;;;;;;10.57;100.00;100386.38;5041988;28;20197;-71
2022/10/24 05:55:41;;;;;;;13.57;7.40;;;;;;;10.53;100.00;100375.19;5045420;28;20499;-71
2022/10/24 05:58:09;;;;;;;12.27;7.13;;;;;;;10.55;100.00;100380.34;5041823;28;20199;-71
2022/10/24 06:00:35;;;;;;;14.97;7.37;;;;;;;10.54;100.00;100383.88;5041783;28;20277;-71
2022/10/24 06:03:02;;;;;;;13.53;6.67;;;;;;;10.54;100.00;100387.34;5050704;28;20582;-71
2022/10/24 06:05:28;;;;;;;11.97;7.47;;;;;;;10.56;100.00;100388.13;5038415;28;20222;-71
2022/10/24 06:07:55;;;;;;;12.60;7.57;;;;;;;10.56;100.00;100379.47;5041269;28;20202;-71
2022/10/24 06:10:22;;;;;;;18.33;7.97;;;;;;;10.55;100.00;100380.34;5034044;28;20605;-71
2022/10/24 06:12:48;;;;;;;12.60;7.03;;;;;;;10.57;100.00;100386.38;5045098;28;20210;-71
2022/10/24 06:15:16;;;;;;;15.83;7.30;;;;;;;10.60;100.00;100384.53;5044249;28;20229;-71
2022/10/24 06:17:42;;;;;;;13.70;7.23;;;;;;;10.64;100.00;100377.50;5044773;28;20322;-71
2022/10/24 06:20:10;;;;;;;11.93;7.33;;;;;;;10.67;100.00;100377.38;5042911;28;20273;-71
2022/10/24 06:22:36;;;;;;;13.17;7.37;;;;;;;10.71;100.00;100371.19;5039809;28;20229;-71
2022/10/24 06:25:03;;;;;;;14.90;8.20;;;;;;;10.75;100.00;100364.97;5038182;28;20234;-71
2022/10/24 06:27:30;;;;;;;14.27;8.30;;;;;;;10.79;100.00;100365.72;5038143;28;20206;-71
2022/10/24 06:29:56;;;;;;;11.40;7.20;;;;;;;10.83;100.00;100367.31;5040860;28;20194;-71
2022/10/24 06:32:24;;;;;;;15.07;7.83;;;;;;;10.89;100.00;100368.91;5036285;28;20679;-71
2022/10/24 06:34:50;;;;;;;12.53;7.03;;;;;;;10.96;100.00;100370.44;5035842;28;20215;-71
2022/10/24 06:37:17;;;;;;;12.83;8.13;;;;;;;11.03;100.00;100366.72;5038720;28;20202;-71
2022/10/24 06:39:43;;;;;;;12.70;7.47;;;;;;;11.09;100.00;100369.13;5032340;28;20223;-71
2022/10/24 06:42:09;;;;;;;11.63;7.37;;;;;;;11.18;100.00;100370.56;5039035;28;20198;-71
2022/10/24 06:44:37;;;;;;;16.73;8.50;;;;;;;11.24;100.00;100372.13;5037333;28;20572;-71
2022/10/24 06:47:03;;;;;;;13.80;7.40;;;;;;;11.31;100.00;100379.72;5034870;28;20194;-71
2022/10/24 06:49:31;;;;;;;15.50;7.97;;;;;;;11.43;100.00;100373.22;5040506;28;20624;-71
2022/10/24 06:51:58;;;;;;;14.33;7.03;;;;;;;11.54;100.00;100375.50;5037738;28;20684;-71
2022/10/24 06:54:24;;;;;;;23.13;7.50;;;;;;;11.64;100.00;100371.63;5038977;28;22679;-71
2022/10/24 06:56:50;;;;;;;14.23;7.03;;;;;;;11.72;100.00;100358.31;5037196;28;20583;-71
2022/10/24 06:59:18;;;;;;;12.57;7.60;;;;;;;11.75;100.00;100356.47;5041571;28;20222;-71
2022/10/24 07:01:45;;;;;;;18.27;7.43;;;;;;;11.78;100.00;100354.63;5038849;28;20256;-71
2022/10/24 07:04:12;;;;;;;12.70;6.90;;;;;;;11.82;100.00;100354.50;5038158;28;20816;-71
2022/10/24 07:06:40;;;;;;;17.00;7.77;;;;;;;11.88;100.00;100350.78;5033812;28;20233;-71
2022/10/24 07:09:06;;;;;;;12.57;6.43;;;;;;;11.94;100.00;100353.22;5035427;28;20193;-71
2022/10/24 07:11:33;;;;;;;18.73;7.33;;;;;;;11.98;100.00;100359.16;5033935;28;20202;-71
2022/10/24 07:14:00;;;;;;;14.00;6.53;;;;;;;12.01;100.00;100359.91;5038924;28;20230;-71
2022/10/24 07:16:28;;;;;;;10.87;6.10;;;;;;;12.05;100.00;100356.31;5034028;28;20223;-71
2022/10/24 07:18:54;;;;;;;11.87;6.27;;;;;;;12.06;100.00;100357.13;5038871;28;20749;-71
2022/10/24 07:21:23;;;;;;;11.73;6.60;;;;;;;12.06;100.00;100357.97;5033757;28;20202;-71
2022/10/24 07:23:52;;;;;;;11.83;5.93;;;;;;;12.08;100.00;100353.59;5036082;28;20204;-71
2022/10/24 07:26:20;;;;;;;12.43;6.73;;;;;;;12.12;100.00;100357.78;5032773;28;20211;-71
2022/10/24 07:28:52;;;;;;;12.17;5.93;;;;;;;12.16;100.00;100365.50;5038430;28;20198;-71
2022/10/24 07:31:19;;;;;;;11.30;5.53;;;;;;;12.17;100.00;100368.06;5040366;28;20735;-71
2022/10/24 07:33:46;;;;;;;14.20;6.20;;;;;;;12.24;100.00;100371.28;5038780;28;20660;-71
2022/10/24 07:36:15;;;;;;;16.10;6.07;;;;;;;12.32;100.00;100375.31;5040273;28;20216;-71
2022/10/24 07:38:42;;;;;;;13.23;5.97;;;;;;;12.46;100.00;100381.81;5040575;28;20199;-71
2022/10/24 07:41:09;;;;;;;10.83;5.60;;;;;;;12.57;100.00;100382.25;5040050;28;20298;-71
2022/10/24 07:43:36;;;;;;;14.03;5.60;;;;;;;12.63;100.00;100391.63;5040009;28;20614;-71
2022/10/24 07:46:06;;;;;;;11.17;5.23;;;;;;;12.72;100.00;100396.50;5032457;28;20302;-71
2022/10/24 07:48:32;;;;;;;12.20;6.30;;;;;;;12.78;100.00;100401.50;5040071;28;20200;-71
2022/10/24 07:50:58;;;;;;;13.53;6.17;;;;;;;12.84;100.00;100400.38;5029670;28;20196;-70
2022/10/24 07:53:26;;;;;;;12.27;6.40;;;;;;;12.88;100.00;100402.84;5037927;28;20203;-71
2022/10/24 07:55:53;;;;;;;13.87;6.33;;;;;;;12.99;100.00;100406.81;5034872;28;20291;-71
2022/10/24 07:58:21;;;;;;;16.90;6.53;;;;;;;13.08;100.00;100407.28;5039262;28;20283;-71
2022/10/24 08:00:47;;;;;;;15.10;6.63;;;;;;;13.15;100.00;100412.28;5040394;28;20219;-71
2022/10/24 08:03:13;;;;;;;12.13;6.40;;;;;;;13.22;100.00;100403.25;5035662;28;20300;-71
2022/10/24 08:05:40;;;;;;;11.30;6.47;;;;;;;13.28;100.00;100403.03;5033797;28;20355;-71
2022/10/24 08:08:07;;;;;;;13.97;6.40;;;;;;;13.33;100.00;100401.09;5037055;28;20199;-71
2022/10/24 08:10:33;;;;;;;13.40;5.90;;;;;;;13.40;100.00;100394.69;5038640;28;20199;-71
2022/10/24 08:12:59;;;;;;;13.00;6.57;;;;;;;13.50;100.00;100381.22;5039369;28;20206;-71
2022/10/24 08:15:29;;;;;;;13.70;6.37;;;;;;;13.54;100.00;100378.38;5036430;28;20222;-71
2022/10/24 08:17:56;;;;;;;20.40;7.10;;;;;;;13.66;100.00;100384.88;5046502;28;20574;-71
2022/10/24 08:20:25;;;;;;;15.67;7.23;;;;;;;13.74;100.00;100374.94;5032399;28;20223;-71
2022/10/24 08:22:51;;;;;;;18.10;7.20;;;;;;;13.83;100.00;100373.69;5034908;28;20225;-71
2022/10/24 08:25:18;;;;;;;20.30;7.93;;;;;;;13.93;100.00;100371.47;5034553;28;20230;-71
2022/10/24 08:27:44;;;;;;;14.20;6.60;;;;;;;14.04;100.00;100378.91;5037272;28;20753;-71
2022/10/24 08:30:12;;;;;;;15.53;7.30;;;;;;;14.14;100.00;100381.03;5038332;28;20192;-71
2022/10/24 08:32:39;;;;;;;16.80;7.50;;;;;;;14.29;100.00;100378.63;5041424;28;20503;-71
2022/10/24 08:35:07;;;;;;;18.23;6.90;;;;;;;14.39;100.00;100398.28;5039324;28;20225;-71
2022/10/24 08:37:35;;;;;;;15.80;6.97;;;;;;;14.54;100.00;100394.09;5032020;28;20730;-71
2022/10/24 08:40:05;;;;;;;16.13;7.17;;;;;;;14.67;100.00;100391.78;5041684;28;20225;-71
2022/10/24 08:42:33;;;;;;;14.87;7.00;;;;;;;14.78;100.00;100389.50;5037248;28;20268;-71
2022/10/24 08:44:59;;;;;;;16.80;7.30;;;;;;;14.87;100.00;100385.59;5034149;28;20222;-71
2022/10/24 08:47:32;;;;;;;16.37;6.80;;;;;;;14.98;100.00;100392.97;5038572;28;20210;-71
2022/10/24 08:50:04;;;;;;;11.67;6.23;;;;;;;15.07;100.00;100395.97;5039212;28;20197;-71
2022/10/24 08:52:33;;;;;;;8.80;5.40;;;;;;;15.20;100.00;100398.03;5044256;28;20222;-71
2022/10/24 08:55:03;;;;;;;14.30;5.43;;;;;;;15.28;100.00;100401.94;5067525;22;20576;-73
2022/10/24 08:57:33;;;;;;;9.17;4.90;;;;;;;15.37;100.00;100399.81;5058663;28;20549;-73
2022/10/24 09:00:04;;;;;;;7.57;4.90;;;;;;;15.40;100.00;100397.03;5056248;28;20214;-73
2022/10/24 09:02:36;;;;;;;8.87;4.83;;;;;;;15.48;100.00;100403.59;5057995;28;20560;-73
2022/10/24 09:05:22;;;;;;;9.17;4.00;;;;;;;15.59;100.00;100396.97;5060366;28;20301;-72
2022/10/24 09:07:54;;;;;;;6.03;3.23;;;;;;;15.66;100.00;100398.34;5058908;28;20198;-73
2022/10/24 09:10:26;;;;;;;5.17;3.00;;;;;;;15.73;100.00;100406.78;5063249;28;20204;-73
2022/10/24 09:12:52;;;;;;;6.03;3.77;;;;;;;15.81;100.00;100402.00;5058299;28;20671;-73
2022/10/24 09:15:24;;;;;;;7.50;3.17;;;;;;;15.89;100.00;100411.19;5055540;28;20814;-72
2022/10/24 09:17:51;;;;;;;6.93;3.03;;;;;;;15.97;100.00;100410.81;5059176;28;20209;-73
2022/10/24 09:20:24;;;;;;;4.03;2.60;;;;;;;16.00;100.00;100408.00;5060770;28;20587;-73
2022/10/24 09:22:51;;;;;;;5.50;2.97;;;;;;;16.00;100.00;100396.63;5058836;28;20281;-73
2022/10/24 09:25:22;;;;;;;5.47;2.97;;;;;;;16.04;100.00;100403.44;5058628;28;20318;-73
2022/10/24 09:27:49;;;;;;;5.47;2.93;;;;;;;16.08;100.00;100399.72;5038786;28;20211;-73
2022/10/24 09:30:17;;;;;;;4.40;2.70;;;;;;;16.16;100.00;100413.28;5055227;28;20286;-72
2022/10/24 09:32:44;;;;;;;5.17;2.30;;;;;;;16.21;100.00;100408.66;5057112;28;20194;-73
2022/10/24 09:35:17;;;;;;;6.23;2.60;;;;;;;16.34;100.00;100408.88;5055683;28;20222;-73
2022/10/24 09:37:47;;;;;;;4.73;2.30;;;;;;;16.51;100.00;100407.09;5059329;28;20708;-72
2022/10/24 09:40:20;;;;;;;11.50;3.00;;;;;;;16.63;100.00;100404.63;5059923;28;20242;-73
2022/10/24 09:42:54;;;;;;;3.57;2.60;;;;;;;16.75;100.00;100397.84;5058466;28;20201;-73
2022/10/24 09:45:30;;;;;;;4.70;2.60;;;;;;;16.91;100.00;100404.94;5061980;28;20733;-72
2022/10/24 09:47:59;;;;;;;4.37;2.30;;;;;;;17.02;100.00;100399.91;5055637;28;20201;-73
2022/10/24 09:50:26;;;;;;;5.53;2.37;;;;;;;17.06;100.00;100403.22;5055910;28;20199;-73
2022/10/24 09:52:58;;;;;;;6.43;2.40;;;;;;;17.12;100.00;100394.97;5057105;28;20202;-73
2022/10/24 09:55:27;;;;;;;10.40;2.67;;;;;;;17.17;100.00;100403.47;5052564;28;20508;-72
2022/10/24 09:57:56;;;;;;;5.30;2.33;;;;;;;17.26;100.00;100410.00;5057820;28;20614;-73
2022/10/24 10:00:26;;;;;;;5.10;2.40;;;;;;;17.32;100.00;100407.00;5059095;28;20225;-71
2022/10/24 10:02:58;;;;;;;3.97;2.00;;;;;;;17.37;100.00;100397.03;5060254;28;20205;-72
2022/10/24 10:05:24;;;;;;;4.93;2.20;;;;;;;17.46;100.00;100390.38;5059132;28;20223;-73
2022/10/24 10:07:51;;;;;;;6.00;2.30;;;;;;;17.59;100.00;100394.84;5060699;28;20742;-73
2022/10/24 10:10:29;;;;;;;3.77;1.80;;;;;;;17.69;100.00;100389.84;5057148;28;20691;-72
2022/10/24 10:12:59;;;;;;;3.17;2.10;;;;;;;17.77;100.00;100392.91;5060786;28;20543;-73
2022/10/24 10:15:31;;;;;;;3.50;2.17;;;;;;;17.92;100.00;100382.38;5060362;28;20218;-73
2022/10/24 10:18:04;;;;;;;7.07;2.30;;;;;;;18.06;100.00;100389.47;5056188;28;20203;-73
2022/10/24 10:20:35;;;;;;;4.27;1.80;;;;;;;18.12;100.00;100397.84;5058134;28;20218;-73
2022/10/24 10:23:24;;;;;;;3.20;1.80;;;;;;;18.19;100.00;100408.03;5054381;28;20668;-73
2022/10/24 10:26:03;;;;;;;2.97;2.03;;;;;;;18.29;100.00;100407.38;5058518;28;20186;-73
2022/10/24 10:28:34;;;;;;;4.70;2.20;;;;;;;18.34;100.00;100404.44;5058031;28;20201;-72
2022/10/24 10:31:01;;;;;;;3.67;1.97;;;;;;;18.34;100.00;100400.00;5057989;28;20202;-73
2022/10/24 10:33:35;;;;;;;2.47;1.87;;;;;;;18.43;100.00;100403.03;5054828;28;20584;-73
2022/10/24 10:36:09;;;;;;;4.17;1.93;;;;;;;18.47;100.00;100399.28;5058171;28;20220;-72
2022/10/24 10:38:44;;;;;;;5.73;2.23;;;;;;;18.48;100.00;100395.66;5055989;28;20187;-73
2022/10/24 10:41:23;;;;;;;4.70;2.00;;;;;;;18.46;100.00;100395.75;5058120;28;20217;-72
2022/10/24 10:44:02;;;;;;;7.90;2.00;;;;;;;18.44;100.00;100389.72;5055024;28;20218;-74
2022/10/24 10:46:38;;;;;;;3.53;1.93;;;;;;;18.43;100.00;100397.75;5055670;28;20210;-72
2022/10/24 10:49:15;;;;;;;7.30;1.67;;;;;;;18.37;100.00;100401.63;5054692;28;20874;-71
2022/10/24 10:51:44;;;;;;;5.83;2.03;;;;;;;18.40;100.00;100400.56;5059366;28;20498;-73
2022/10/24 10:54:29;;;;;;;4.40;1.80;;;;;;;18.33;100.00;100398.31;5059220;28;20221;-73
2022/10/24 10:57:02;;;;;;;3.87;1.80;;;;;;;18.32;100.00;100396.63;5049321;28;20209;-72
2022/10/24 10:59:41;;;;;;;3.80;2.00;;;;;;;18.30;100.00;100403.78;5058641;28;20202;-73
2022/10/24 11:02:26;;;;;;;7.53;1.83;;;;;;;18.30;100.00;100398.50;5056564;28;20769;-73
2022/10/24 11:04:59;;;;;;;3.73;2.00;;;;;;;18.33;100.00;100397.47;5054315;28;20407;-72
2022/10/24 11:07:35;;;;;;;3.13;1.87;;;;;;;18.29;100.00;100394.19;5051961;28;20198;-72
2022/10/24 11:10:09;;;;;;;5.33;2.10;;;;;;;18.23;100.00;100399.00;5054244;28;20581;-73
2022/10/24 11:12:40;;;;;;;4.57;1.77;;;;;;;18.23;100.00;100394.56;5051571;28;20194;-73
2022/10/24 11:15:15;;;;;;;4.27;1.80;;;;;;;18.21;100.00;100393.81;5051165;28;20222;-73
2022/10/24 11:17:49;;;;;;;3.70;2.00;;;;;;;18.21;100.00;100383.25;5057654;28;20198;-73
2022/10/24 11:20:20;;;;;;;3.07;1.80;;;;;;;18.19;100.00;100379.88;5054357;28;20218;-72
2022/10/24 11:22:50;;;;;;;7.30;2.40;;;;;;;18.19;100.00;100384.28;5053134;28;20200;-73